This is the latest recevied weather packets stored in our database for station/object JA6CFI-13. If no packets are shown the sender has not sent any weather packets the latest 1 day(s).
| Time | Temp. | Humidity | Pressure | Rain* | Wind** | Luminosity | Snow |
|---|---|---|---|---|---|---|---|
| 1836274508 | 26.67° C | 89% | 1009.6 hPa | 1.02 mm | 1.79 m/s, 159° | - | - |
| 1836274478 | 26.67° C | 89% | 1009.4 hPa | 1.02 mm | 1.79 m/s, 155° | - | - |
| 1778028140 | 21.67° C | 61% | 1018.2 hPa | 0 mm | 0.45 m/s, 311° | - | - |
| 1778027361 | 21.11° C | 62% | 1018.3 hPa | 0 mm | 0.45 m/s, 311° | - | - |
| 1778026580 | 21.67° C | 61% | 1018.4 hPa | 0 mm | 0.45 m/s, 201° | - | - |
| 1778025802 | 21.11° C | 64% | 1018.4 hPa | 0 mm | 0.45 m/s, 229° | - | - |
| 1778025021 | 20° C | 66% | 1018.4 hPa | 0 mm | 0 m/s | - | - |
| 1778024240 | 18.89° C | 67% | 1018.5 hPa | 0 mm | 0 m/s | - | - |
| 1778023462 | 18.33° C | 70% | 1018.6 hPa | 0 mm | 0.45 m/s, 193° | - | - |
| 1778022681 | 17.78° C | 72% | 1018.6 hPa | 0 mm | 0.45 m/s, 189° | - | - |
| 1778021901 | 17.22° C | 76% | 1018.9 hPa | 0 mm | 0 m/s | - | - |
| 1778021121 | 16.11° C | 78% | 1019.1 hPa | 0 mm | 0 m/s | - | - |
| 1778020342 | 15.56° C | 79% | 1019.2 hPa | 0 mm | 0 m/s | - | - |
| 1778019561 | 15° C | 82% | 1018.9 hPa | 0 mm | 0 m/s | - | - |
| 1778018781 | 14.44° C | 83% | 1018.7 hPa | 0 mm | 0 m/s | - | - |
| 1778018001 | 14.44° C | 84% | 1018.6 hPa | 0 mm | 0 m/s | - | - |
| 1778017221 | 13.89° C | 86% | 1019 hPa | 0 mm | 0.45 m/s, 160° | - | - |
| 1778016441 | 12.78° C | 88% | 1018.9 hPa | 0 mm | 0 m/s | - | - |
| 1778015660 | 12.78° C | 88% | 1018.9 hPa | 0 mm | 0 m/s | - | - |
| 1778014882 | 12.22° C | 89% | 1018.8 hPa | 0 mm | 0.45 m/s, 126° | - | - |
| 1778014101 | 11.67° C | 89% | 1019 hPa | 0 mm | 0 m/s | - | - |
| 1778013320 | 11.67° C | 89% | 1018.8 hPa | 0 mm | 0.45 m/s, 183° | - | - |
| 1778012542 | 11.67° C | 90% | 1019 hPa | 0 mm | 0.89 m/s, 201° | - | - |
| 1778011761 | 11.67° C | 90% | 1018.9 hPa | 0 mm | 0.89 m/s, 162° | - | - |
| 1778010981 | 11.67° C | 89% | 1018.7 hPa | 0 mm | 0.89 m/s, 158° | - | - |
* Rain latest hour (hover to see other rain measurements)
** Current wind speed in m/s (hover to see current wind gust speed)